You are listening to:
Miami FSS/Misc - Miami, Florida, United States

KMIA 240553Z 00000KT 10SM BKN120 25/24 A2991 RMK AO2 RAE0457 SLP130 P0000 60010 T02500244 10256 20244 58012 $

If stream doesn't start automatically press the play button
If stream stops then reload player then press play